Nearby METAR Reports

 

KBVO - Bartlesville, Oklahoma, USA
Distance from station: WNW 10mi, 16km
Updated: Thu, 20-Jun-2019 10:53am CDT
Clear
Clear
 Wind from varies
Wind: varies 5 mph , 7 km/h
Temperature: 84°F , 29°C
Heat Index: 89°F , 32°C
Dew Point: 72°F , 22°C
Humidity: 66%
Barometer: 29.80 inHg , 1009.1 hPa
Clouds: Clear
Visibility: 10 miles , 16 km
2019/06/20 15:53 KBVO 201553Z AUTO VRB04KT 10SM CLR 29/22 A2980 RMK AO2 SLP081 T02940222
KCFV - Coffeyville, Kansas, USA
Distance from station: NNE 31mi, 49km
Updated: Thu, 20-Jun-2019 10:52am CDT
Clear
Clear
 Wind from varies
Wind: varies 3 mph , 6 km/h
Temperature: 82°F , 28°C
Heat Index: 86°F , 30°C
Dew Point: 70°F , 21°C
Humidity: 66%
Barometer: 29.81 inHg , 1009.5 hPa
Clouds: Clear
Visibility: 10 miles , 16 km
2019/06/20 15:52 KCFV 201552Z AUTO VRB03KT 10SM CLR 28/21 A2981 RMK AO2 SLP087 T02830211
 
KIDP - Independence, Kansas, USA
Distance from station: N 32mi, 52km
Updated: Thu, 20-Jun-2019 11:15am CDT
Mostly cloudy
Mostly cloudy
 Wind from calm
Wind: Calm
Temperature: 82°F , 28°C
Heat Index: 86°F , 30°C
Dew Point: 72°F , 22°C
Humidity: 70%
Barometer: 29.83 inHg , 1010.2 hPa
Clouds: Mostly cloudy
Visibility: 10 miles , 16 km
Cloud details: Mostly cloudy 5500 ft
2019/06/20 16:15 KIDP 201615Z AUTO 00000KT 10SM BKN055 28/22 A2983 RMK AO2 T02750215
KGCM - Claremore, Oklahoma, USA
Distance from station: SE 35mi, 56km
Updated: Thu, 20-Jun-2019 11:15am CDT
Clear
Clear
 Wind from S
Wind: S 6 mph , 9 km/h
Temperature: 81°F , 27°C
Heat Index: 85°F , 29°C
Dew Point: 70°F , 21°C
Humidity: 70%
Barometer: 29.83 inHg , 1010.2 hPa
Clouds: Clear
Visibility: 10 miles , 16 km
2019/06/20 16:15 KGCM 201615Z AUTO 19005KT 10SM CLR 27/21 A2983 RMK AO2
 
KTUL - Tulsa, Oklahoma, USA
Distance from station: S 35mi, 56km
Updated: Thu, 20-Jun-2019 10:53am CDT
Few Clouds
Few Clouds
 Wind from WSW
Wind: WSW 7 mph , 11 km/h
Temperature: 86°F , 30°C
Heat Index: 91°F , 33°C
Dew Point: 70°F , 21°C
Humidity: 59%
Barometer: 29.78 inHg , 1008.5 hPa
Clouds: Few Clouds
Visibility: 10 miles , 16 km
Cloud details: Few Clouds 8000 ft
2019/06/20 15:53 KTUL 201553Z 24006KT 10SM FEW080 30/21 A2978 RMK AO2 SLP076 ACC SW T03000206
KRVS - Tulsa, Oklahoma, USA
Distance from station: S 46mi, 74km
Updated: Thu, 20-Jun-2019 10:53am CDT
Clear
Clear
 Wind from SW
Wind: SW 8 mph , 13 km/h
Temperature: 84°F , 29°C
Heat Index: 88°F , 31°C
Dew Point: 70°F , 21°C
Humidity: 62%
Barometer: 29.79 inHg , 1008.8 hPa
Clouds: Clear
Visibility: 10 miles , 16 km
2019/06/20 15:53 KRVS 201553Z 23007KT 10SM CLR 29/21 A2979 RMK AO2 SLP090 T02940206
 
KPPF - Parsons, Kansas, USA
Distance from station: NNE 48mi, 76km
Updated: Thu, 20-Jun-2019 11:29am CDT
Partly cloudy
Partly cloudy
 Wind from varies
Wind: varies 3 mph , 6 km/h
Temperature: 82°F , 28°C
Heat Index: 86°F , 30°C
Dew Point: 72°F , 22°C
Humidity: 70%
Barometer: 29.85 inHg , 1010.8 hPa
Clouds: Partly cloudy
Visibility: 10 miles , 16 km
Cloud details: Partly cloudy 2600 ft
Partly cloudy 6000 ft
2019/06/20 16:29 KPPF 201629Z AUTO VRB03KT 10SM SCT026 SCT060 28/22 A2985 RMK AO2 T02830217
KGMJ - Grove, Oklahoma, USA
Distance from station: E 63mi, 101km
Updated: Thu, 20-Jun-2019 11:15am CDT
Partly cloudy
Partly cloudy
 Wind from calm
Wind: Calm
Temperature: 81°F , 27°C
Heat Index: 85°F , 29°C
Dew Point: 70°F , 21°C
Humidity: 70%
Barometer: 29.84 inHg , 1010.5 hPa
Clouds: Partly cloudy
Visibility: 10 miles , 16 km
Cloud details: Partly cloudy 2600 ft
2019/06/20 16:15 KGMJ 201615Z AUTO 00000KT 10SM SCT026 27/21 A2984 RMK AO2
 
KPNC - Ponca City, Oklahoma, USA
Distance from station: W 69mi, 111km
Updated: Thu, 20-Jun-2019 10:53am CDT
Clear
Clear
 
Temperature: 84°F , 29°C
Heat Index: 87°F , 31°C
Dew Point: 68°F , 20°C
Humidity: 58%
Barometer: 29.77 inHg , 1008.1 hPa
Clouds: Clear
Visibility: 10 miles , 16 km
2019/06/20 15:53 KPNC 201553Z AUTO 10SM CLR 29/20 A2977 RMK AO2 SLP067 T02940200
KCNU - Chanute, Kansas, USA
Distance from station: NNE 69mi, 112km
Updated: Thu, 20-Jun-2019 10:52am CDT
Partly cloudy
Partly cloudy
 Wind from varies
Wind: varies 3 mph , 6 km/h
Temperature: 81°F , 27°C
Heat Index: 84°F , 29°C
Dew Point: 68°F , 20°C
Humidity: 66%
Barometer: 29.84 inHg , 1010.5 hPa
Clouds: Partly cloudy
Visibility: 10 miles , 16 km
Cloud details: Partly cloudy 2900 ft
2019/06/20 15:52 KCNU 201552Z AUTO VRB03KT 10SM SCT029 27/20 A2984 RMK AO2 PRESFR SLP095 T02720200